createdAt,value
2022-11-24T00:01:45.741Z,21.40
2022-11-24T00:04:12.555Z,21.75
2022-11-24T00:06:39.415Z,21.73
2022-11-24T00:09:06.901Z,21.83
2022-11-24T00:11:35.863Z,22.20
2022-11-24T00:14:04.763Z,22.13
2022-11-24T00:16:34.696Z,22.50
2022-11-24T00:19:03.063Z,21.50
2022-11-24T00:24:18.811Z,21.98
2022-11-24T00:26:45.625Z,22.20
2022-11-24T00:29:12.431Z,23.63
2022-11-24T00:31:41.871Z,22.77
2022-11-24T00:36:59.554Z,21.92
2022-11-24T00:39:26.719Z,22.50
2022-11-24T00:41:53.575Z,22.75
2022-11-24T00:44:20.403Z,22.05
2022-11-24T00:46:47.336Z,22.48
2022-11-24T00:49:14.359Z,22.17
2022-11-24T00:51:41.167Z,22.63
2022-11-24T00:54:08.076Z,22.50
2022-11-24T00:56:34.870Z,21.92
2022-11-24T00:59:01.705Z,21.77
2022-11-24T01:01:29.873Z,23.20
2022-11-24T01:03:58.351Z,23.23
2022-11-24T01:06:27.507Z,22.60
2022-11-24T01:08:55.805Z,22.85
2022-11-24T01:11:23.934Z,22.77
2022-11-24T01:13:57.969Z,21.80
2022-11-24T01:19:21.034Z,22.70
2022-11-24T01:24:34.724Z,20.60
2022-11-24T01:29:28.473Z,22.40
2022-11-24T01:31:55.273Z,22.10
2022-11-24T01:37:08.875Z,21.05
2022-11-24T01:39:35.669Z,21.20
2022-11-24T01:42:02.527Z,21.88
2022-11-24T01:44:30.831Z,21.17
2022-11-24T01:47:18.756Z,20.05
2022-11-24T01:49:49.040Z,21.37
2022-11-24T01:55:21.765Z,21.23
2022-11-24T01:57:54.815Z,19.58
2022-11-24T02:00:21.955Z,20.92
2022-11-24T02:05:44.294Z,21.40
2022-11-24T02:08:20.712Z,20.92
2022-11-24T02:10:48.456Z,19.80
2022-11-24T02:13:16.084Z,20.75
2022-11-24T02:15:43.279Z,20.25
2022-11-24T02:18:10.345Z,19.85
2022-11-24T02:20:37.225Z,19.60
2022-11-24T02:23:20.522Z,19.83
2022-11-24T02:26:05.584Z,19.88
2022-11-24T02:28:32.659Z,20.75
2022-11-24T02:31:00.993Z,20.63
2022-11-24T02:33:28.200Z,20.20
2022-11-24T02:35:55.099Z,19.27
2022-11-24T02:38:33.096Z,19.80
2022-11-24T02:41:07.484Z,19.83
2022-11-24T02:43:48.527Z,19.70
2022-11-24T02:46:15.417Z,20.42
2022-11-24T02:48:42.334Z,19.65
2022-11-24T02:51:09.123Z,20.57
2022-11-24T02:53:35.953Z,20.55
2022-11-24T02:56:02.762Z,20.13
2022-11-24T02:58:29.571Z,20.83
2022-11-24T03:00:56.473Z,19.67
2022-11-24T03:03:23.697Z,20.27
2022-11-24T03:05:50.678Z,18.50
2022-11-24T03:08:17.636Z,19.27
2022-11-24T03:10:44.848Z,20.00
2022-11-24T03:13:11.731Z,19.50
2022-11-24T03:15:38.703Z,19.60
2022-11-24T03:18:05.848Z,20.83
2022-11-24T03:20:32.941Z,20.58
2022-11-24T03:22:59.739Z,20.77
2022-11-24T03:25:26.598Z,19.90
2022-11-24T03:27:53.392Z,20.85
2022-11-24T03:30:20.301Z,20.50
2022-11-24T03:32:47.089Z,19.67
2022-11-24T03:35:13.867Z,21.38
2022-11-24T03:37:40.664Z,20.67
2022-11-24T03:40:07.845Z,20.10
2022-11-24T03:42:34.657Z,20.75
2022-11-24T03:45:16.607Z,21.90
2022-11-24T03:47:51.467Z,21.43
2022-11-24T03:50:18.398Z,21.50
2022-11-24T03:52:45.205Z,20.90
2022-11-24T03:55:11.999Z,21.52
2022-11-24T03:57:38.804Z,20.20
2022-11-24T04:00:06.058Z,22.15
2022-11-24T04:02:32.997Z,20.07
2022-11-24T04:04:59.830Z,21.95
2022-11-24T04:07:26.754Z,22.20
2022-11-24T04:09:53.619Z,21.90
2022-11-24T04:15:07.541Z,20.58
2022-11-24T04:20:21.121Z,21.63
2022-11-24T04:25:37.108Z,22.98
2022-11-24T04:30:50.928Z,22.50
2022-11-24T04:36:04.830Z,23.60
2022-11-24T04:39:23.767Z,22.25
2022-11-24T04:41:18.499Z,22.80
2022-11-24T04:46:32.054Z,23.05
2022-11-24T04:48:58.933Z,22.92
2022-11-24T04:51:25.712Z,22.65
2022-11-24T04:53:52.539Z,22.88
2022-11-24T04:56:19.345Z,22.73
2022-11-24T04:58:49.029Z,22.57
2022-11-24T05:01:15.954Z,22.92
2022-11-24T05:03:42.882Z,25.50
2022-11-24T05:06:09.743Z,22.77
2022-11-24T05:08:36.477Z,23.65
2022-11-24T05:13:54.367Z,22.83
2022-11-24T05:16:21.208Z,22.80
2022-11-24T05:18:48.008Z,22.67
2022-11-24T05:21:14.888Z,23.30
2022-11-24T05:23:41.685Z,24.40
2022-11-24T05:26:08.723Z,23.67
2022-11-24T05:28:35.489Z,22.80
2022-11-24T05:31:03.000Z,24.10
2022-11-24T05:33:30.829Z,23.48
2022-11-24T05:36:01.334Z,24.38
2022-11-24T05:38:28.189Z,22.85
2022-11-24T05:40:54.908Z,25.13
2022-11-24T05:43:21.634Z,24.27
2022-11-24T05:45:48.402Z,23.92
2022-11-24T05:48:15.565Z,23.88
2022-11-24T05:50:42.601Z,23.60
2022-11-24T05:53:12.838Z,22.80
2022-11-24T05:55:40.476Z,22.03
2022-11-24T05:58:08.800Z,23.17
2022-11-24T06:00:36.748Z,22.50
2022-11-24T06:03:04.176Z,23.25
2022-11-24T06:05:31.223Z,21.98
2022-11-24T06:07:59.832Z,21.55
2022-11-24T06:10:26.828Z,22.27
2022-11-24T06:12:53.758Z,21.00
2022-11-24T06:15:20.897Z,21.33
2022-11-24T06:17:55.392Z,21.97
2022-11-24T06:20:25.145Z,22.60
2022-11-24T06:22:58.135Z,21.55
2022-11-24T06:28:11.710Z,22.73
2022-11-24T06:30:38.431Z,21.42
2022-11-24T06:33:05.183Z,22.60
2022-11-24T06:35:31.913Z,22.77
2022-11-24T06:37:58.662Z,21.60
2022-11-24T06:40:25.412Z,22.20
2022-11-24T06:42:52.272Z,21.83
2022-11-24T06:45:19.079Z,22.73
2022-11-24T06:47:45.858Z,21.67
2022-11-24T06:50:12.600Z,20.70
2022-11-24T06:52:39.867Z,21.00
2022-11-24T06:55:07.255Z,23.00
2022-11-24T06:57:34.082Z,21.50
2022-11-24T07:00:00.908Z,20.80
2022-11-24T07:02:27.675Z,21.80
2022-11-24T07:04:54.383Z,21.90
2022-11-24T07:07:21.246Z,20.23
2022-11-24T07:09:48.038Z,20.03
2022-11-24T07:12:14.807Z,20.13
2022-11-24T07:14:41.590Z,20.88
2022-11-24T07:17:08.396Z,19.40
2022-11-24T07:19:35.148Z,19.90
2022-11-24T07:22:01.925Z,19.77
2022-11-24T07:24:28.697Z,20.50
2022-11-24T07:26:55.492Z,21.02
2022-11-24T07:29:22.254Z,19.70
2022-11-24T07:31:49.036Z,19.80
2022-11-24T07:34:15.815Z,20.77
2022-11-24T07:36:42.859Z,20.63
2022-11-24T07:41:57.856Z,19.90
2022-11-24T07:44:24.594Z,19.98
2022-11-24T07:46:51.745Z,19.80
2022-11-24T07:49:19.414Z,18.80
2022-11-24T07:51:46.181Z,19.90
2022-11-24T07:56:59.647Z,19.55
2022-11-24T08:02:13.643Z,19.92
2022-11-24T08:06:48.911Z,0
2022-11-24T08:07:07.174Z,18.20
2022-11-24T08:09:34.169Z,18.80
2022-11-24T08:12:00.910Z,18.80
2022-11-24T08:14:27.717Z,21.00
2022-11-24T08:16:54.560Z,20.00
2022-11-24T08:19:22.350Z,18.83
2022-11-24T08:21:49.159Z,18.20
2022-11-24T08:24:16.093Z,18.10
2022-11-24T08:26:43.588Z,19.48
2022-11-24T08:29:10.704Z,18.30
2022-11-24T08:31:39.178Z,18.05
2022-11-24T08:34:06.441Z,19.00
2022-11-24T08:36:34.256Z,17.98
2022-11-24T08:39:01.053Z,18.80
2022-11-24T08:41:28.878Z,18.83
2022-11-24T08:43:55.813Z,18.13
2022-11-24T08:46:22.945Z,17.80
2022-11-24T08:48:52.490Z,17.50
2022-11-24T08:51:22.625Z,18.10
2022-11-24T08:53:49.430Z,18.50
2022-11-24T08:56:16.239Z,18.27
2022-11-24T08:58:43.071Z,17.40
2022-11-24T09:01:17.874Z,17.83
2022-11-24T09:03:51.366Z,16.27
2022-11-24T09:06:20.371Z,17.40
2022-11-24T09:08:47.098Z,17.00
2022-11-24T09:11:15.415Z,16.80
2022-11-24T09:13:42.739Z,17.98
2022-11-24T09:16:18.695Z,17.20
2022-11-24T09:21:34.203Z,16.73
2022-11-24T09:26:48.053Z,15.98
2022-11-24T09:31:45.147Z,15.80
2022-11-24T09:34:15.927Z,15.60
2022-11-24T09:39:29.797Z,16.20
2022-11-24T09:42:08.325Z,17.10
2022-11-24T09:44:44.050Z,15.63
2022-11-24T09:47:37.296Z,17.17
2022-11-24T09:50:18.366Z,16.63
2022-11-24T09:52:49.231Z,16.10
2022-11-24T09:55:34.799Z,15.57
2022-11-24T09:58:44.462Z,14.93
2022-11-24T10:01:19.391Z,15.20
2022-11-24T10:03:51.708Z,15.80
2022-11-24T10:06:24.013Z,14.65
2022-11-24T10:12:33.722Z,15.68
2022-11-24T10:15:18.631Z,15.02
2022-11-24T10:18:23.026Z,15.20
2022-11-24T10:21:12.848Z,14.40
2022-11-24T10:24:02.944Z,14.40
2022-11-24T10:26:37.143Z,14.40
2022-11-24T10:29:18.711Z,15.10
2022-11-24T10:31:46.771Z,14.57
2022-11-24T10:34:41.442Z,14.27
2022-11-24T10:37:10.936Z,14.20
2022-11-24T10:39:57.115Z,13.90
2022-11-24T10:42:29.390Z,15.00
2022-11-24T10:45:08.864Z,14.45
2022-11-24T10:47:35.650Z,14.45
2022-11-24T10:50:22.611Z,13.77
2022-11-24T10:52:58.174Z,14.27
2022-11-24T10:55:24.921Z,14.23
2022-11-24T10:57:51.696Z,15.45
2022-11-24T11:00:21.394Z,14.40
2022-11-24T11:02:49.972Z,13.55
2022-11-24T11:08:21.205Z,13.77
2022-11-24T11:11:11.711Z,13.02
2022-11-24T11:13:38.516Z,13.93
2022-11-24T11:16:23.835Z,13.57
2022-11-24T11:18:50.805Z,14.30
2022-11-24T11:20:04.698Z,0
2022-11-24T11:21:33.568Z,13.20
2022-11-24T11:24:02.240Z,13.63
2022-11-24T11:26:36.065Z,13.20
2022-11-24T11:31:24.788Z,0
2022-11-24T11:34:30.732Z,0
2022-11-24T11:35:02.781Z,13.40
2022-11-24T11:37:32.364Z,13.40
2022-11-24T11:39:59.424Z,14.18
2022-11-24T11:45:24.777Z,14.18
2022-11-24T11:48:02.516Z,13.30
2022-11-24T11:51:21.658Z,14.10
2022-11-24T11:54:07.088Z,13.50
2022-11-24T12:00:16.386Z,13.20
2022-11-24T12:02:55.752Z,13.07
2022-11-24T12:05:59.185Z,12.88
2022-11-24T12:09:18.725Z,12.93
2022-11-24T12:09:23.216Z,0
2022-11-24T12:11:53.173Z,13.10
2022-11-24T12:21:06.328Z,12.90
2022-11-24T12:23:47.806Z,12.43
2022-11-24T12:26:32.588Z,13.77
2022-11-24T12:29:26.898Z,12.90
2022-11-24T12:31:56.422Z,13.50
2022-11-24T12:34:44.082Z,13.10
2022-11-24T12:37:25.256Z,13.07
2022-11-24T12:40:14.767Z,13.23
2022-11-24T12:42:57.947Z,12.80
2022-11-24T12:45:43.246Z,13.15
2022-11-24T12:48:41.892Z,12.50
2022-11-24T12:51:17.716Z,11.82
2022-11-24T12:56:41.581Z,11.20
2022-11-24T12:59:39.845Z,12.73
2022-11-24T13:02:21.668Z,11.87
2022-11-24T13:07:57.188Z,12.40
2022-11-24T13:13:27.997Z,12.40
2022-11-24T13:16:34.787Z,12.50
2022-11-24T13:18:44.283Z,12.13
2022-11-24T13:21:36.828Z,11.73
2022-11-24T13:24:06.846Z,11.60
2022-11-24T13:26:42.676Z,11.48
2022-11-24T13:29:27.010Z,0
2022-11-24T13:29:27.586Z,12.10
2022-11-24T13:31:55.885Z,12.05
2022-11-24T13:34:41.027Z,11.85
2022-11-24T13:37:31.592Z,12.00
2022-11-24T13:40:11.747Z,12.15
2022-11-24T13:42:58.855Z,11.60
2022-11-24T13:45:41.202Z,12.63
2022-11-24T13:48:20.650Z,12.38
2022-11-24T13:50:50.830Z,11.85
2022-11-24T13:51:26.998Z,0
2022-11-24T13:53:24.755Z,11.40
2022-11-24T13:56:05.816Z,12.05
2022-11-24T13:58:37.779Z,11.80
2022-11-24T14:01:21.726Z,12.30
2022-11-24T14:07:07.869Z,11.93
2022-11-24T14:09:48.059Z,12.40
2022-11-24T14:12:25.533Z,12.85
2022-11-24T14:14:54.306Z,13.18
2022-11-24T14:17:21.986Z,13.50
2022-11-24T14:19:54.439Z,13.40
2022-11-24T14:22:41.185Z,12.82
2022-11-24T14:25:22.938Z,12.30
2022-11-24T14:27:49.793Z,12.50
2022-11-24T14:30:22.365Z,13.38
2022-11-24T14:33:00.460Z,12.57
2022-11-24T14:38:15.670Z,12.48
2022-11-24T14:43:32.705Z,12.85
2022-11-24T14:46:09.907Z,13.00
2022-11-24T14:48:48.256Z,13.07
2022-11-24T14:51:28.091Z,12.50
2022-11-24T14:53:58.765Z,12.90
2022-11-24T14:58:59.985Z,14.20
2022-11-24T15:01:26.783Z,13.00
2022-11-24T15:10:33.657Z,14.63
2022-11-24T15:13:03.226Z,14.80
2022-11-24T15:15:36.222Z,14.30
2022-11-24T15:20:52.518Z,14.82
2022-11-24T15:23:33.336Z,14.65
2022-11-24T15:26:20.308Z,14.50
2022-11-24T15:28:47.102Z,14.73
2022-11-24T15:31:14.796Z,14.90
2022-11-24T15:33:42.204Z,14.73
2022-11-24T15:36:09.029Z,14.60
2022-11-24T15:38:35.801Z,14.50
2022-11-24T15:41:05.432Z,14.70
2022-11-24T15:43:35.006Z,14.60
2022-11-24T15:46:03.501Z,15.00
2022-11-24T15:48:30.747Z,14.77
2022-11-24T15:50:59.310Z,14.93
2022-11-24T15:53:29.951Z,14.40
2022-11-24T15:55:57.111Z,14.70
2022-11-24T16:01:10.852Z,14.90
2022-11-24T16:03:52.955Z,15.25
2022-11-24T16:06:25.368Z,15.00
2022-11-24T16:08:53.798Z,14.57
2022-11-24T16:14:07.702Z,15.93
2022-11-24T16:19:21.404Z,15.70
2022-11-24T16:19:44.977Z,0
2022-11-24T16:21:48.895Z,16.15
2022-11-24T16:24:15.730Z,16.17
2022-11-24T16:26:42.496Z,15.90
2022-11-24T16:29:09.292Z,16.40
2022-11-24T16:31:36.158Z,15.55
2022-11-24T16:34:03.232Z,15.40
2022-11-24T16:36:30.074Z,16.50
2022-11-24T16:38:56.903Z,17.08
2022-11-24T16:41:23.624Z,17.60
2022-11-24T16:43:50.359Z,17.25
2022-11-24T16:46:22.318Z,16.25
2022-11-24T16:48:54.172Z,16.73
2022-11-24T16:51:22.980Z,16.50
2022-11-24T16:53:57.557Z,16.65
2022-11-24T16:56:24.491Z,16.40
2022-11-24T16:58:51.234Z,16.48
2022-11-24T17:01:18.029Z,16.90
2022-11-24T17:03:44.826Z,17.10
2022-11-24T17:06:15.026Z,16.23
2022-11-24T17:08:42.951Z,16.23
2022-11-24T17:11:21.161Z,16.55
2022-11-24T17:13:48.480Z,16.90
2022-11-24T17:15:55.639Z,0
2022-11-24T17:16:19.466Z,16.95
2022-11-24T17:18:46.708Z,15.93
2022-11-24T17:21:18.186Z,16.70
2022-11-24T17:23:45.526Z,17.40
2022-11-24T17:26:15.300Z,17.20
2022-11-24T17:28:42.427Z,16.48
2022-11-24T17:34:05.200Z,16.27
2022-11-24T17:39:24.491Z,17.73
2022-11-24T17:41:51.775Z,18.13
2022-11-24T17:44:18.498Z,18.00
2022-11-24T17:46:45.224Z,19.05
2022-11-24T17:51:58.644Z,20.30
2022-11-24T17:54:45.477Z,21.50
2022-11-24T17:57:12.063Z,18.33
2022-11-24T17:59:38.834Z,19.00
2022-11-24T18:02:05.656Z,19.83
2022-11-24T18:04:32.457Z,19.80
2022-11-24T18:06:59.203Z,20.35
2022-11-24T18:09:25.973Z,19.80
2022-11-24T18:11:52.729Z,20.60
2022-11-24T18:14:19.486Z,19.75
2022-11-24T18:16:46.335Z,20.05
2022-11-24T18:19:13.140Z,20.23
2022-11-24T18:21:41.306Z,20.70
2022-11-24T18:23:08.520Z,0
2022-11-24T18:24:09.809Z,20.77
2022-11-24T18:26:36.694Z,21.90
2022-11-24T18:29:04.091Z,22.88
2022-11-24T18:31:31.048Z,23.50
2022-11-24T18:33:57.909Z,23.13
2022-11-24T18:36:30.002Z,22.50
2022-11-24T18:41:45.421Z,23.03
2022-11-24T18:46:58.925Z,26.13
2022-11-24T18:52:12.316Z,26.40
2022-11-24T18:54:39.076Z,27.35
2022-11-24T18:57:05.793Z,28.10
2022-11-24T18:59:32.537Z,30.10
2022-11-24T19:01:59.401Z,31.13
2022-11-24T19:04:26.283Z,31.15
2022-11-24T19:06:53.035Z,30.88
2022-11-24T19:09:19.819Z,30.40
2022-11-24T19:11:47.639Z,30.58
2022-11-24T19:14:17.895Z,32.80
2022-11-24T19:16:45.465Z,28.98
2022-11-24T19:19:12.512Z,27.27
2022-11-24T19:21:40.670Z,22.40
2022-11-24T19:24:09.018Z,21.15
2022-11-24T19:26:36.305Z,24.48
2022-11-24T19:29:04.350Z,25.27
2022-11-24T19:31:31.331Z,29.05
2022-11-24T19:33:58.277Z,24.33
2022-11-24T19:36:25.097Z,26.85
2022-11-24T19:41:40.969Z,28.33
2022-11-24T19:46:58.568Z,29.35
2022-11-24T19:49:25.313Z,28.97
2022-11-24T19:51:53.456Z,29.83
2022-11-24T19:54:20.165Z,30.00
2022-11-24T19:56:47.012Z,29.13
2022-11-24T19:59:14.294Z,27.77
2022-11-24T20:01:41.161Z,35.42
2022-11-24T20:04:12.271Z,37.45
2022-11-24T20:06:42.017Z,31.95
2022-11-24T20:09:10.784Z,32.38
2022-11-24T20:14:24.347Z,29.20
2022-11-24T20:19:37.769Z,27.25
2022-11-24T20:22:04.526Z,27.20
2022-11-24T20:24:31.232Z,28.15
2022-11-24T20:26:58.741Z,27.15
2022-11-24T20:29:25.693Z,27.65
2022-11-24T20:31:54.762Z,25.80
2022-11-24T20:34:24.019Z,25.53
2022-11-24T20:39:37.501Z,27.38
2022-11-24T20:42:04.454Z,24.13
2022-11-24T20:44:31.286Z,24.47
2022-11-24T20:46:58.504Z,24.08
2022-11-24T20:49:26.198Z,24.48
2022-11-24T20:51:52.991Z,24.10
2022-11-24T20:54:19.958Z,31.33
2022-11-24T20:56:47.260Z,24.08
2022-11-24T20:59:20.143Z,23.57
2022-11-24T21:01:48.145Z,24.38
2022-11-24T21:04:19.028Z,24.05
2022-11-24T21:06:45.895Z,25.38
2022-11-24T21:09:12.736Z,24.97
2022-11-24T21:11:40.300Z,21.73
2022-11-24T21:14:08.128Z,22.45
2022-11-24T21:16:37.159Z,22.70
2022-11-24T21:21:59.745Z,21.10
2022-11-24T21:27:13.166Z,21.90
2022-11-24T21:32:26.593Z,25.55
2022-11-24T21:34:53.382Z,24.35
2022-11-24T21:37:20.159Z,24.33
2022-11-24T21:39:46.963Z,22.70
2022-11-24T21:42:13.827Z,26.70
2022-11-24T21:44:40.634Z,23.43
2022-11-24T21:47:07.368Z,21.70
2022-11-24T21:49:34.170Z,22.60
2022-11-24T21:52:00.902Z,21.70
2022-11-24T21:54:27.678Z,21.00
2022-11-24T21:56:54.428Z,20.60
2022-11-24T21:59:21.240Z,20.27
2022-11-24T22:01:48.060Z,20.60
2022-11-24T22:04:14.886Z,21.08
2022-11-24T22:06:41.600Z,20.30
2022-11-24T22:09:09.216Z,20.15
2022-11-24T22:11:38.096Z,20.40
2022-11-24T22:14:04.846Z,19.02
2022-11-24T22:16:31.847Z,17.65
2022-11-24T22:19:00.119Z,17.23
2022-11-24T22:21:26.901Z,17.48
2022-11-24T22:23:53.663Z,18.13
2022-11-24T22:26:22.255Z,18.50
2022-11-24T22:28:49.618Z,20.38
2022-11-24T22:31:18.961Z,18.67
2022-11-24T22:33:46.506Z,19.02
2022-11-24T22:36:14.808Z,19.20
2022-11-24T22:38:42.642Z,18.92
2022-11-24T22:41:12.037Z,16.53
2022-11-24T22:43:40.444Z,17.60
2022-11-24T22:46:08.446Z,17.20
2022-11-24T22:48:35.570Z,17.90
2022-11-24T22:51:11.359Z,18.50
2022-11-24T22:53:39.025Z,18.30
2022-11-24T22:58:55.270Z,17.65
2022-11-24T23:04:11.620Z,16.02
2022-11-24T23:09:25.235Z,16.02
2022-11-24T23:11:52.068Z,14.85
2022-11-24T23:14:18.965Z,14.35
2022-11-24T23:16:45.756Z,14.55
2022-11-24T23:21:59.444Z,14.83
2022-11-24T23:24:26.308Z,15.10
2022-11-24T23:26:53.099Z,14.50
2022-11-24T23:29:19.980Z,13.95
2022-11-24T23:31:46.775Z,13.70
2022-11-24T23:34:13.625Z,14.25
2022-11-24T23:36:40.419Z,14.57
2022-11-24T23:39:09.137Z,13.65
2022-11-24T23:41:36.483Z,13.98
2022-11-24T23:44:03.811Z,14.83
2022-11-24T23:46:30.989Z,14.80
2022-11-24T23:48:57.903Z,16.58
2022-11-24T23:51:28.463Z,15.00
2022-11-24T23:56:42.795Z,14.90
2022-11-24T23:59:10.911Z,15.13
